createdAt,value
2017-06-22T00:00:08.962Z,17.60
2017-06-22T00:02:35.269Z,17.60
2017-06-22T00:05:01.573Z,17.60
2017-06-22T00:07:27.873Z,17.70
2017-06-22T00:09:54.166Z,17.70
2017-06-22T00:12:20.505Z,17.70
2017-06-22T00:14:46.820Z,17.70
2017-06-22T00:17:13.121Z,17.80
2017-06-22T00:19:39.437Z,17.70
2017-06-22T00:22:05.742Z,17.70
2017-06-22T00:24:32.801Z,17.70
2017-06-22T00:26:59.105Z,17.70
2017-06-22T00:29:25.426Z,17.70
2017-06-22T00:31:51.741Z,17.70
2017-06-22T00:34:18.057Z,17.70
2017-06-22T00:36:44.352Z,17.70
2017-06-22T00:39:10.654Z,17.60
2017-06-22T00:41:36.969Z,17.60
2017-06-22T00:44:03.269Z,17.60
2017-06-22T00:46:29.586Z,17.60
2017-06-22T00:48:55.904Z,17.50
2017-06-22T00:51:22.205Z,17.50
2017-06-22T00:53:49.243Z,17.50
2017-06-22T00:56:16.581Z,17.40
2017-06-22T00:58:42.881Z,17.50
2017-06-22T01:01:10.174Z,17.50
2017-06-22T01:03:36.490Z,17.50
2017-06-22T01:06:02.801Z,17.50
2017-06-22T01:08:29.136Z,17.50
2017-06-22T01:10:55.451Z,17.50
2017-06-22T01:13:21.753Z,17.50
2017-06-22T01:15:48.061Z,17.40
2017-06-22T01:18:14.354Z,17.40
2017-06-22T01:20:40.672Z,17.40
2017-06-22T01:23:06.973Z,17.30
2017-06-22T01:25:33.278Z,17.30
2017-06-22T01:27:59.578Z,17.20
2017-06-22T01:30:25.900Z,17.20
2017-06-22T01:32:52.224Z,17.20
2017-06-22T01:35:18.525Z,17.10
2017-06-22T01:37:45.861Z,17.10
2017-06-22T01:40:13.946Z,17.00
2017-06-22T01:42:40.269Z,17.00
2017-06-22T01:45:07.341Z,17.00
2017-06-22T01:47:33.665Z,17.00
2017-06-22T01:49:59.989Z,16.90
2017-06-22T01:52:26.349Z,16.90
2017-06-22T01:54:52.665Z,16.80
2017-06-22T01:57:18.971Z,16.80
2017-06-22T01:59:45.281Z,16.80
2017-06-22T02:02:11.585Z,16.80
2017-06-22T02:04:37.889Z,16.70
2017-06-22T02:07:04.201Z,16.70
2017-06-22T02:09:30.510Z,16.70
2017-06-22T02:11:57.554Z,16.60
2017-06-22T02:14:24.594Z,16.60
2017-06-22T02:16:52.622Z,16.60
2017-06-22T02:19:18.929Z,16.60
2017-06-22T02:21:45.234Z,16.60
2017-06-22T02:24:11.565Z,16.60
2017-06-22T02:26:38.618Z,16.60
2017-06-22T02:29:04.909Z,16.50
2017-06-22T02:31:31.217Z,16.50
2017-06-22T02:33:57.526Z,16.50
2017-06-22T02:36:25.355Z,16.50
2017-06-22T02:38:52.397Z,16.50
2017-06-22T02:41:18.692Z,16.40
2017-06-22T02:43:45.013Z,16.50
2017-06-22T02:46:11.313Z,16.50
2017-06-22T02:48:37.609Z,16.50
2017-06-22T02:51:03.924Z,16.40
2017-06-22T02:53:30.230Z,16.40
2017-06-22T02:55:56.578Z,16.30
2017-06-22T02:58:22.870Z,16.40
2017-06-22T03:00:49.201Z,16.40
2017-06-22T03:03:20.298Z,16.40
2017-06-22T03:05:46.622Z,16.40
2017-06-22T03:08:12.946Z,16.50
2017-06-22T03:10:39.249Z,16.40
2017-06-22T03:13:05.576Z,16.40
2017-06-22T03:15:32.897Z,16.50
2017-06-22T03:17:59.200Z,16.40
2017-06-22T03:20:25.526Z,16.50
2017-06-22T03:22:51.821Z,16.40
2017-06-22T03:25:18.122Z,16.40
2017-06-22T03:27:44.429Z,16.50
2017-06-22T03:30:11.494Z,16.50
2017-06-22T03:32:37.805Z,16.50
2017-06-22T03:35:05.877Z,16.50
2017-06-22T03:37:32.937Z,16.50
2017-06-22T03:39:59.971Z,16.50
2017-06-22T03:42:27.020Z,16.50
2017-06-22T03:44:53.327Z,16.50
2017-06-22T03:47:19.637Z,16.50
2017-06-22T03:49:45.963Z,16.50
2017-06-22T03:52:12.262Z,16.50
2017-06-22T03:54:38.555Z,16.50
2017-06-22T03:57:04.865Z,16.60
2017-06-22T03:59:31.176Z,16.60
2017-06-22T04:01:57.474Z,16.60
2017-06-22T04:04:23.778Z,16.70
2017-06-22T04:06:50.077Z,16.60
2017-06-22T04:09:16.398Z,16.70
2017-06-22T04:11:42.721Z,16.70
2017-06-22T04:14:09.055Z,16.90
2017-06-22T04:16:35.377Z,17.00
2017-06-22T04:19:01.695Z,17.20
2017-06-22T04:21:27.993Z,17.30
2017-06-22T04:23:56.045Z,17.60
2017-06-22T04:26:22.346Z,17.60
2017-06-22T04:28:48.658Z,17.70
2017-06-22T04:31:14.969Z,17.90
2017-06-22T04:33:41.273Z,18.00
2017-06-22T04:36:07.576Z,18.00
2017-06-22T04:38:34.916Z,18.00
2017-06-22T04:41:01.212Z,18.00
2017-06-22T04:43:27.526Z,18.00
2017-06-22T04:45:55.566Z,18.10
2017-06-22T04:48:21.878Z,18.00
2017-06-22T04:50:48.465Z,18.00
2017-06-22T04:53:14.758Z,18.10
2017-06-22T04:55:41.061Z,18.10
2017-06-22T04:58:08.577Z,18.20
2017-06-22T05:00:34.890Z,18.20
2017-06-22T05:03:02.381Z,18.30
2017-06-22T05:05:28.674Z,18.40
2017-06-22T05:07:54.968Z,18.60
2017-06-22T05:10:21.265Z,18.70
2017-06-22T05:12:47.566Z,18.80
2017-06-22T05:15:13.865Z,18.90
2017-06-22T05:17:40.160Z,19.00
2017-06-22T05:20:06.457Z,19.10
2017-06-22T05:22:32.761Z,19.10
2017-06-22T05:25:00.071Z,19.20
2017-06-22T05:27:26.360Z,19.40
2017-06-22T05:29:54.609Z,19.50
2017-06-22T05:32:20.901Z,19.60
2017-06-22T05:34:47.189Z,19.80
2017-06-22T05:37:13.485Z,19.80
2017-06-22T05:39:39.788Z,20.00
2017-06-22T05:42:07.857Z,20.30
2017-06-22T05:44:34.910Z,20.30
2017-06-22T05:47:01.210Z,20.20
2017-06-22T05:49:27.496Z,20.40
2017-06-22T05:51:54.809Z,20.60
2017-06-22T05:54:21.845Z,20.90
2017-06-22T05:56:48.885Z,21.30
2017-06-22T05:59:15.926Z,21.40
2017-06-22T06:01:42.241Z,21.40
2017-06-22T06:04:08.563Z,21.60
2017-06-22T06:06:34.870Z,21.80
2017-06-22T06:09:01.176Z,22.00
2017-06-22T06:11:27.469Z,22.20
2017-06-22T06:13:53.762Z,22.50
2017-06-22T06:16:20.058Z,22.70
2017-06-22T06:18:47.088Z,23.00
2017-06-22T06:21:13.387Z,23.00
2017-06-22T06:23:40.681Z,23.10
2017-06-22T06:26:06.973Z,23.20
2017-06-22T06:28:33.267Z,23.40
2017-06-22T06:30:59.561Z,23.70
2017-06-22T06:33:26.597Z,23.80
2017-06-22T06:35:53.918Z,23.70
2017-06-22T06:38:20.209Z,23.90
2017-06-22T06:40:46.507Z,24.10
2017-06-22T06:43:12.801Z,24.30
2017-06-22T06:45:39.092Z,24.40
2017-06-22T06:48:06.133Z,24.60
2017-06-22T06:50:33.174Z,24.90
2017-06-22T06:52:59.472Z,24.90
2017-06-22T06:55:25.774Z,25.00
2017-06-22T06:57:52.065Z,25.10
2017-06-22T07:00:19.118Z,25.30
2017-06-22T07:02:46.149Z,25.30
2017-06-22T07:05:13.186Z,25.20
2017-06-22T07:07:39.476Z,25.20
2017-06-22T07:10:05.766Z,25.50
2017-06-22T07:12:32.806Z,25.90
2017-06-22T07:14:59.844Z,25.80
2017-06-22T07:17:26.160Z,25.70
2017-06-22T07:19:52.466Z,25.90
2017-06-22T07:22:18.788Z,25.90
2017-06-22T07:24:45.085Z,26.20
2017-06-22T07:27:12.132Z,26.50
2017-06-22T07:29:39.170Z,26.50
2017-06-22T07:32:06.196Z,26.70
2017-06-22T07:34:32.501Z,26.60
2017-06-22T07:36:58.796Z,26.80
2017-06-22T07:39:25.097Z,26.90
2017-06-22T07:41:52.133Z,26.60
2017-06-22T07:44:18.434Z,26.60
2017-06-22T07:46:44.729Z,26.60
2017-06-22T07:49:11.021Z,26.40
2017-06-22T07:51:37.321Z,26.30
2017-06-22T07:54:03.617Z,26.30
2017-06-22T07:56:29.913Z,26.40
2017-06-22T07:58:57.225Z,26.50
2017-06-22T08:01:23.529Z,26.60
2017-06-22T08:03:49.829Z,26.70
2017-06-22T08:06:16.124Z,26.60
2017-06-22T08:08:42.430Z,26.60
2017-06-22T08:11:08.728Z,26.70
2017-06-22T08:13:35.773Z,27.20
2017-06-22T08:16:02.822Z,27.20
2017-06-22T08:18:29.870Z,27.50
2017-06-22T08:20:56.905Z,27.20
2017-06-22T08:23:23.941Z,27.30
2017-06-22T08:25:50.238Z,27.30
2017-06-22T08:28:16.546Z,27.60
2017-06-22T08:30:42.837Z,28.00
2017-06-22T08:33:09.120Z,27.90
2017-06-22T08:35:35.413Z,27.80
2017-06-22T08:38:02.449Z,27.80
2017-06-22T08:40:29.488Z,28.00
2017-06-22T08:42:55.788Z,27.90
2017-06-22T08:45:22.094Z,28.50
2017-06-22T08:47:48.394Z,28.50
2017-06-22T08:50:14.710Z,28.30
2017-06-22T08:52:41.005Z,28.50
2017-06-22T08:55:07.302Z,28.70
2017-06-22T08:57:33.605Z,28.30
2017-06-22T08:59:59.893Z,28.20
2017-06-22T09:02:26.184Z,28.40
2017-06-22T09:04:52.485Z,28.10
2017-06-22T09:07:18.786Z,28.40
2017-06-22T09:09:45.085Z,28.30
2017-06-22T09:12:11.387Z,28.80
2017-06-22T09:14:37.681Z,29.20
2017-06-22T09:17:03.993Z,28.90
2017-06-22T09:19:30.306Z,28.80
2017-06-22T09:21:56.605Z,29.10
2017-06-22T09:24:23.641Z,28.50
2017-06-22T09:26:50.674Z,28.60
2017-06-22T09:29:16.965Z,28.60
2017-06-22T09:31:43.270Z,28.60
2017-06-22T09:34:09.571Z,28.70
2017-06-22T09:36:35.874Z,28.60
2017-06-22T09:39:02.289Z,28.50
2017-06-22T09:41:28.600Z,28.70
2017-06-22T09:43:54.913Z,28.80
2017-06-22T09:46:21.205Z,29.10
2017-06-22T09:48:48.496Z,29.00
2017-06-22T09:51:14.817Z,29.50
2017-06-22T09:53:41.853Z,29.40
2017-06-22T09:56:08.886Z,29.10
2017-06-22T09:58:35.197Z,29.00
2017-06-22T10:01:01.493Z,29.00
2017-06-22T10:03:27.797Z,29.00
2017-06-22T10:05:55.818Z,29.30
2017-06-22T10:08:22.109Z,29.30
2017-06-22T10:10:48.410Z,30.00
2017-06-22T10:13:14.697Z,29.50
2017-06-22T10:15:41.019Z,29.70
2017-06-22T10:18:07.324Z,30.30
2017-06-22T10:20:33.612Z,30.50
2017-06-22T10:22:59.906Z,30.30
2017-06-22T10:25:26.205Z,30.30
2017-06-22T10:27:53.229Z,30.30
2017-06-22T10:30:19.521Z,30.30
2017-06-22T10:32:46.850Z,30.40
2017-06-22T10:35:13.160Z,31.10
2017-06-22T10:37:40.197Z,30.30
2017-06-22T10:40:07.233Z,30.40
2017-06-22T10:42:33.525Z,30.40
2017-06-22T10:44:59.845Z,30.70
2017-06-22T10:47:26.141Z,30.50
2017-06-22T10:49:53.181Z,29.90
2017-06-22T10:52:20.233Z,29.90
2017-06-22T10:54:47.281Z,30.70
2017-06-22T10:57:14.318Z,30.80
2017-06-22T10:59:41.353Z,30.50
2017-06-22T11:02:07.645Z,30.40
2017-06-22T11:04:33.957Z,30.30
2017-06-22T11:07:00.259Z,30.10
2017-06-22T11:09:28.289Z,30.10
2017-06-22T11:11:55.601Z,30.10
2017-06-22T11:14:21.890Z,30.30
2017-06-22T11:16:48.186Z,30.30
2017-06-22T11:19:14.531Z,30.10
2017-06-22T11:21:40.842Z,30.20
2017-06-22T11:24:07.142Z,30.20
2017-06-22T11:26:33.441Z,30.60
2017-06-22T11:28:59.741Z,31.20
2017-06-22T11:31:26.026Z,31.40
2017-06-22T11:33:53.075Z,31.30
2017-06-22T11:36:21.109Z,31.00
2017-06-22T11:38:47.402Z,30.90
2017-06-22T11:41:13.694Z,30.40
2017-06-22T11:43:40.731Z,30.80
2017-06-22T11:46:07.025Z,30.80
2017-06-22T11:48:33.318Z,30.60
2017-06-22T11:50:59.606Z,31.00
2017-06-22T11:53:25.896Z,31.20
2017-06-22T11:55:52.193Z,31.00
2017-06-22T11:58:19.225Z,31.00
2017-06-22T12:00:46.523Z,31.00
2017-06-22T12:03:12.821Z,30.80
2017-06-22T12:05:39.853Z,31.00
2017-06-22T12:08:06.160Z,31.00
2017-06-22T12:10:32.460Z,31.00
2017-06-22T12:12:58.765Z,31.30
2017-06-22T12:15:25.077Z,31.40
2017-06-22T12:17:52.125Z,31.10
2017-06-22T12:20:18.445Z,31.10
2017-06-22T12:22:44.749Z,30.80
2017-06-22T12:25:11.054Z,30.90
2017-06-22T12:27:37.353Z,30.90
2017-06-22T12:30:04.395Z,31.60
2017-06-22T12:32:31.429Z,32.50
2017-06-22T12:34:58.469Z,32.90
2017-06-22T12:37:24.776Z,32.90
2017-06-22T12:39:51.078Z,34.30
2017-06-22T12:42:17.372Z,34.60
2017-06-22T12:44:44.417Z,34.20
2017-06-22T12:47:11.482Z,34.20
2017-06-22T12:49:37.790Z,34.20
2017-06-22T12:52:04.098Z,34.60
2017-06-22T12:54:30.402Z,34.40
2017-06-22T12:56:56.689Z,34.60
2017-06-22T12:59:23.750Z,36.20
2017-06-22T13:01:50.109Z,36.10
2017-06-22T13:04:16.413Z,36.70
2017-06-22T13:06:42.709Z,36.80
2017-06-22T13:09:09.005Z,38.10
2017-06-22T13:11:35.314Z,37.90
2017-06-22T13:14:01.634Z,37.50
2017-06-22T13:16:28.930Z,37.90
2017-06-22T13:18:55.232Z,38.90
2017-06-22T13:21:21.626Z,37.40
2017-06-22T13:23:47.932Z,37.60
2017-06-22T13:26:14.226Z,37.80
2017-06-22T13:28:40.547Z,36.80
2017-06-22T13:31:06.841Z,36.80
2017-06-22T13:33:33.139Z,36.10
2017-06-22T13:35:59.440Z,37.90
2017-06-22T13:38:26.729Z,36.20
2017-06-22T13:40:53.026Z,36.20
2017-06-22T13:43:19.317Z,36.60
2017-06-22T13:45:47.402Z,40.20
2017-06-22T13:48:13.698Z,40.10
2017-06-22T13:50:40.741Z,37.40
2017-06-22T13:53:07.035Z,37.30
2017-06-22T13:55:33.328Z,36.60
2017-06-22T13:57:59.649Z,37.10
2017-06-22T14:00:25.956Z,38.70
2017-06-22T14:02:52.253Z,37.00
2017-06-22T14:05:18.549Z,36.90
2017-06-22T14:07:44.930Z,38.20
2017-06-22T14:10:11.235Z,37.50
2017-06-22T14:12:37.529Z,38.50
2017-06-22T14:15:04.584Z,38.10
2017-06-22T14:17:30.874Z,38.00
2017-06-22T14:19:57.174Z,37.10
2017-06-22T14:22:23.477Z,36.70
2017-06-22T14:24:49.786Z,38.70
2017-06-22T14:27:17.841Z,38.50
2017-06-22T14:29:44.134Z,38.40
2017-06-22T14:32:10.459Z,38.20
2017-06-22T14:34:36.761Z,37.60
2017-06-22T14:37:03.067Z,38.70
2017-06-22T14:39:29.365Z,38.70
2017-06-22T14:41:55.655Z,39.60
2017-06-22T14:44:21.950Z,38.50
2017-06-22T14:46:48.237Z,38.60
2017-06-22T14:49:14.545Z,38.90
2017-06-22T14:51:40.849Z,39.80
2017-06-22T14:54:07.913Z,38.50
2017-06-22T14:56:34.273Z,38.50
2017-06-22T14:59:00.569Z,37.60
2017-06-22T15:01:26.869Z,37.50
2017-06-22T15:03:53.173Z,37.60
2017-06-22T15:06:19.491Z,37.70
2017-06-22T15:08:45.782Z,37.20
2017-06-22T15:11:13.814Z,37.80
2017-06-22T15:13:40.126Z,37.90
2017-06-22T15:16:06.433Z,37.30
2017-06-22T15:18:32.756Z,36.70
2017-06-22T15:20:59.097Z,37.20
2017-06-22T15:23:25.453Z,37.40
2017-06-22T15:25:51.776Z,36.40
2017-06-22T15:28:18.080Z,37.70
2017-06-22T15:30:44.373Z,37.20
2017-06-22T15:33:10.682Z,36.30
2017-06-22T15:35:36.978Z,35.90
2017-06-22T15:38:03.285Z,35.20
2017-06-22T15:40:30.321Z,34.20
2017-06-22T15:42:57.362Z,34.20
2017-06-22T15:45:23.661Z,34.30
2017-06-22T15:47:49.949Z,35.70
2017-06-22T15:50:16.266Z,35.90
2017-06-22T15:52:43.297Z,33.80
2017-06-22T15:55:09.585Z,33.70
2017-06-22T15:57:35.885Z,33.50
2017-06-22T16:00:02.205Z,33.50
2017-06-22T16:02:28.525Z,33.30
2017-06-22T16:04:55.583Z,33.50
2017-06-22T16:07:21.885Z,33.40
2017-06-22T16:09:48.177Z,33.30
2017-06-22T16:12:14.469Z,34.10
2017-06-22T16:14:40.769Z,33.60
2017-06-22T16:17:07.073Z,33.70
2017-06-22T16:19:33.385Z,34.30
2017-06-22T16:21:59.682Z,34.60
2017-06-22T16:24:26.759Z,33.70
2017-06-22T16:26:53.061Z,33.60
2017-06-22T16:29:20.105Z,32.90
2017-06-22T16:31:47.141Z,32.90
2017-06-22T16:34:14.227Z,32.50
2017-06-22T16:36:40.525Z,32.50
2017-06-22T16:39:06.825Z,32.20
2017-06-22T16:41:33.129Z,31.70
2017-06-22T16:43:59.417Z,32.20
2017-06-22T16:46:26.465Z,31.90
2017-06-22T16:48:53.501Z,31.80
2017-06-22T16:51:19.801Z,31.80
2017-06-22T16:53:46.108Z,31.40
2017-06-22T16:56:12.408Z,31.20
2017-06-22T16:58:38.710Z,31.60
2017-06-22T17:01:05.005Z,31.20
2017-06-22T17:03:31.297Z,31.10
2017-06-22T17:05:57.599Z,31.00
2017-06-22T17:08:23.905Z,30.60
2017-06-22T17:10:51.206Z,30.40
2017-06-22T17:13:17.531Z,30.40
2017-06-22T17:15:44.572Z,29.80
2017-06-22T17:18:10.869Z,29.70
2017-06-22T17:20:37.173Z,29.80
2017-06-22T17:23:03.474Z,29.80
2017-06-22T17:25:29.789Z,29.80
2017-06-22T17:27:56.896Z,29.40
2017-06-22T17:30:23.204Z,29.40
2017-06-22T17:32:49.514Z,29.40
2017-06-22T17:35:16.834Z,29.60
2017-06-22T17:37:43.148Z,29.90
2017-06-22T17:40:09.957Z,29.80
2017-06-22T17:42:36.255Z,29.70
2017-06-22T17:45:02.557Z,29.90
2017-06-22T17:47:28.849Z,29.80
2017-06-22T17:49:56.173Z,29.60
2017-06-22T17:52:22.457Z,29.50
2017-06-22T17:54:49.823Z,29.30
2017-06-22T17:57:16.142Z,28.80
2017-06-22T17:59:42.444Z,28.30
2017-06-22T18:02:08.753Z,28.10
2017-06-22T18:04:35.374Z,27.90
2017-06-22T18:07:01.949Z,27.70
2017-06-22T18:09:28.252Z,27.40
2017-06-22T18:11:54.553Z,27.00
2017-06-22T18:14:20.957Z,26.90
2017-06-22T18:16:47.253Z,26.70
2017-06-22T18:19:13.862Z,26.50
2017-06-22T18:21:40.949Z,25.90
2017-06-22T18:24:07.261Z,25.90
2017-06-22T18:26:33.625Z,25.70
2017-06-22T18:29:02.241Z,25.60
2017-06-22T18:31:29.293Z,25.40
2017-06-22T18:33:55.593Z,25.40
2017-06-22T18:36:21.894Z,25.20
2017-06-22T18:38:48.193Z,25.00
2017-06-22T18:41:15.235Z,24.70
2017-06-22T18:43:42.268Z,24.60
2017-06-22T18:46:08.592Z,24.60
2017-06-22T18:48:35.141Z,24.60
2017-06-22T18:51:02.501Z,24.30
2017-06-22T18:53:29.538Z,24.30
2017-06-22T18:55:55.858Z,24.30
2017-06-22T18:58:22.170Z,24.30
2017-06-22T19:00:48.853Z,24.20
2017-06-22T19:03:15.943Z,24.00
2017-06-22T19:05:43.543Z,24.00
2017-06-22T19:08:10.193Z,23.90
2017-06-22T19:10:37.235Z,23.80
2017-06-22T19:13:04.285Z,23.80
2017-06-22T19:15:31.328Z,23.70
2017-06-22T19:17:58.371Z,23.60
2017-06-22T19:20:25.717Z,23.50
2017-06-22T19:22:53.209Z,23.50
2017-06-22T19:25:19.524Z,23.50
2017-06-22T19:27:46.881Z,23.50
2017-06-22T19:30:14.188Z,23.60
2017-06-22T19:32:40.497Z,23.60
2017-06-22T19:35:08.851Z,23.70
2017-06-22T19:37:35.772Z,23.70
2017-06-22T19:40:02.954Z,23.80
2017-06-22T19:42:30.253Z,23.70
2017-06-22T19:44:57.543Z,23.70
2017-06-22T19:47:23.900Z,23.50
2017-06-22T19:49:50.201Z,23.40
2017-06-22T19:52:16.494Z,23.30
2017-06-22T19:54:42.792Z,23.20
2017-06-22T19:57:09.161Z,23.20
2017-06-22T19:59:36.481Z,23.20
2017-06-22T20:02:02.798Z,23.10
2017-06-22T20:04:29.654Z,23.10
2017-06-22T20:06:57.138Z,23.10
2017-06-22T20:09:24.277Z,23.10
2017-06-22T20:11:50.781Z,23.20
2017-06-22T20:14:17.081Z,23.30
2017-06-22T20:16:45.121Z,23.30
2017-06-22T20:19:11.446Z,23.30
2017-06-22T20:21:37.817Z,23.40
2017-06-22T20:24:04.868Z,23.50
2017-06-22T20:26:31.178Z,23.50
2017-06-22T20:28:58.253Z,23.50
2017-06-22T20:31:25.649Z,23.40
2017-06-22T20:33:51.957Z,23.40
2017-06-22T20:36:18.327Z,23.30
2017-06-22T20:38:44.652Z,23.50
2017-06-22T20:41:10.947Z,23.40
2017-06-22T20:43:37.244Z,23.40
2017-06-22T20:46:04.318Z,23.40
2017-06-22T20:48:30.646Z,23.40
2017-06-22T20:50:56.981Z,23.30
2017-06-22T20:53:23.297Z,23.30
2017-06-22T20:55:49.601Z,23.30
2017-06-22T20:58:16.653Z,23.20
2017-06-22T21:00:43.706Z,23.30
2017-06-22T21:03:10.023Z,23.30
2017-06-22T21:05:37.117Z,23.30
2017-06-22T21:08:03.448Z,23.20
2017-06-22T21:10:29.746Z,23.30
2017-06-22T21:12:56.056Z,23.20
2017-06-22T21:15:23.115Z,23.20
2017-06-22T21:17:50.170Z,23.20
2017-06-22T21:20:16.536Z,23.20
2017-06-22T21:22:42.845Z,23.20
2017-06-22T21:25:09.157Z,23.20
2017-06-22T21:27:35.449Z,23.30
2017-06-22T21:30:01.764Z,23.30
2017-06-22T21:32:28.065Z,23.50
2017-06-22T21:34:54.365Z,23.40
2017-06-22T21:37:21.400Z,23.60
2017-06-22T21:39:48.711Z,23.50
2017-06-22T21:42:15.021Z,23.60
2017-06-22T21:44:41.313Z,23.60
2017-06-22T21:47:07.618Z,23.80
2017-06-22T21:49:33.949Z,23.80
2017-06-22T21:52:00.253Z,23.80
2017-06-22T21:54:26.570Z,23.90
2017-06-22T21:56:52.865Z,23.90
2017-06-22T21:59:19.922Z,24.10
2017-06-22T22:01:47.278Z,24.00
2017-06-22T22:04:14.324Z,23.90
2017-06-22T22:06:41.369Z,23.80
2017-06-22T22:09:07.681Z,23.80
2017-06-22T22:11:33.985Z,23.80
2017-06-22T22:14:00.274Z,23.80
2017-06-22T22:16:26.589Z,23.80
2017-06-22T22:18:54.641Z,23.70
2017-06-22T22:21:20.956Z,23.70
2017-06-22T22:23:47.264Z,23.80
2017-06-22T22:26:13.557Z,23.70
2017-06-22T22:28:39.862Z,23.80
2017-06-22T22:31:06.169Z,23.90
2017-06-22T22:33:32.458Z,23.90
2017-06-22T22:35:58.754Z,23.80
2017-06-22T22:38:25.810Z,23.80
2017-06-22T22:40:52.881Z,23.70
2017-06-22T22:43:19.193Z,23.70
2017-06-22T22:45:46.248Z,23.90
2017-06-22T22:48:12.548Z,23.90
2017-06-22T22:50:38.952Z,23.80
2017-06-22T22:53:05.265Z,24.00
2017-06-22T22:55:31.594Z,24.10
2017-06-22T22:57:57.894Z,24.10
2017-06-22T23:00:24.226Z,24.10
2017-06-22T23:02:50.568Z,24.20
2017-06-22T23:05:16.866Z,24.40
2017-06-22T23:07:43.929Z,24.50
2017-06-22T23:10:10.260Z,24.50
2017-06-22T23:12:37.314Z,24.50
2017-06-22T23:15:03.641Z,24.50
2017-06-22T23:17:29.969Z,24.60
2017-06-22T23:19:56.277Z,24.60
2017-06-22T23:22:23.313Z,24.60
2017-06-22T23:24:49.651Z,24.50
2017-06-22T23:27:15.961Z,24.60
2017-06-22T23:29:42.289Z,24.60
2017-06-22T23:32:08.601Z,24.60
2017-06-22T23:34:34.909Z,24.50
2017-06-22T23:37:01.218Z,24.50
2017-06-22T23:39:28.290Z,24.50
2017-06-22T23:41:54.597Z,24.50
2017-06-22T23:44:20.897Z,24.50
2017-06-22T23:46:47.193Z,24.50
2017-06-22T23:49:13.528Z,24.40
2017-06-22T23:51:39.843Z,24.50
2017-06-22T23:54:06.144Z,24.30
2017-06-22T23:56:33.188Z,24.50
2017-06-22T23:59:01.345Z,24.50
